createdAt,value
2017-08-12T06:00:52.241Z,16.28
2017-08-12T06:02:05.741Z,16.22
2017-08-12T06:03:19.529Z,15.99
2017-08-12T06:04:33.078Z,15.91
2017-08-12T06:05:47.411Z,15.92
2017-08-12T06:07:00.937Z,16.02
2017-08-12T06:08:15.103Z,16.02
2017-08-12T06:09:29.301Z,16.12
2017-08-12T06:10:52.117Z,16.08
2017-08-12T06:12:05.692Z,16.16
2017-08-12T06:13:19.797Z,16.21
2017-08-12T06:14:33.539Z,16.24
2017-08-12T06:15:47.237Z,16.24
2017-08-12T06:17:00.749Z,16.21
2017-08-12T06:18:14.761Z,16.22
2017-08-12T06:19:28.801Z,16.17
2017-08-12T06:20:43.123Z,16.18
2017-08-12T06:21:58.505Z,16.24
2017-08-12T06:23:12.105Z,16.16
2017-08-12T06:24:25.605Z,16.16
2017-08-12T06:25:39.237Z,16.18
2017-08-12T06:26:53.230Z,16.18
2017-08-12T06:28:15.963Z,16.24
2017-08-12T06:29:29.518Z,16.21
2017-08-12T06:30:43.254Z,16.21
2017-08-12T06:31:56.811Z,16.21
2017-08-12T06:33:10.410Z,16.22
2017-08-12T06:34:23.921Z,16.22
2017-08-12T06:35:37.549Z,16.18
2017-08-12T06:36:51.045Z,16.16
2017-08-12T06:38:04.670Z,16.22
2017-08-12T06:39:18.276Z,16.25
2017-08-12T06:40:31.874Z,16.25
2017-08-12T06:41:45.665Z,16.32
2017-08-12T06:42:59.295Z,16.29
2017-08-12T06:44:12.820Z,16.29
2017-08-12T06:45:26.423Z,16.39
2017-08-12T06:46:40.234Z,16.32
2017-08-12T06:48:14.927Z,16.29
2017-08-12T06:49:50.921Z,16.47
2017-08-12T06:51:32.018Z,16.51
2017-08-12T06:52:55.998Z,16.73
2017-08-12T06:54:09.716Z,16.69
2017-08-12T06:55:53.669Z,16.77
2017-08-12T06:57:27.631Z,16.83
2017-08-12T06:58:41.263Z,16.84
2017-08-12T06:59:54.819Z,16.87
2017-08-12T07:01:08.438Z,16.98
2017-08-12T07:02:22.386Z,16.91
2017-08-12T07:04:01.345Z,17.12
2017-08-12T07:05:14.971Z,17.22
2017-08-12T07:06:28.706Z,17.35
2017-08-12T07:07:42.352Z,17.42
2017-08-12T07:08:56.189Z,17.38
2017-08-12T07:10:09.843Z,17.37
2017-08-12T07:11:23.620Z,17.37
2017-08-12T07:12:37.232Z,17.35
2017-08-12T07:13:51.033Z,17.37
2017-08-12T07:15:19.705Z,17.42
2017-08-12T07:16:33.230Z,17.27
2017-08-12T07:17:46.902Z,17.3
2017-08-12T07:19:00.398Z,17.42
2017-08-12T07:20:26.543Z,17.38
2017-08-12T07:21:40.420Z,17.35
2017-08-12T07:22:54.097Z,17.35
2017-08-12T07:24:07.624Z,17.44
2017-08-12T07:25:21.401Z,17.65
2017-08-12T07:26:34.936Z,17.56
2017-08-12T07:27:48.831Z,17.65
2017-08-12T07:29:02.330Z,17.79
2017-08-12T07:30:25.429Z,17.86
2017-08-12T07:31:39.075Z,17.87
2017-08-12T07:32:52.835Z,17.84
2017-08-12T07:34:06.354Z,17.95
2017-08-12T07:35:19.966Z,17.95
2017-08-12T07:36:33.824Z,17.9
2017-08-12T07:37:47.564Z,17.93
2017-08-12T07:39:01.082Z,18.11
2017-08-12T07:40:27.987Z,18.18
2017-08-12T07:41:41.497Z,18.26
2017-08-12T07:42:55.186Z,18.27
2017-08-12T07:44:08.744Z,18.49
2017-08-12T07:45:32.188Z,18.42
2017-08-12T07:46:45.714Z,18.46
2017-08-12T07:48:00.015Z,18.58
2017-08-12T07:49:13.565Z,18.51
2017-08-12T07:50:27.289Z,18.48
2017-08-12T07:51:41.468Z,18.68
2017-08-12T07:53:09.265Z,18.7
2017-08-12T07:54:22.806Z,18.73
2017-08-12T07:56:02.739Z,18.82
2017-08-12T07:57:16.363Z,18.74
2017-08-12T07:58:30.015Z,18.73
2017-08-12T07:59:44.290Z,18.79
2017-08-12T08:00:57.792Z,19.01
2017-08-12T08:02:31.548Z,19.12
2017-08-12T08:03:48.137Z,19.22
2017-08-12T08:05:02.137Z,19.15
2017-08-12T08:06:15.752Z,19.16
2017-08-12T08:07:29.261Z,19.12
2017-08-12T08:08:52.077Z,19.17
2017-08-12T08:10:05.602Z,19.12
2017-08-12T08:11:27.762Z,19.23
2017-08-12T08:12:50.871Z,19.01
2017-08-12T08:14:15.237Z,19.09
2017-08-12T08:15:36.810Z,19.34
2017-08-12T08:16:56.584Z,19.41
2017-08-12T08:18:10.131Z,19.37
2017-08-12T08:19:24.155Z,19.26
2017-08-12T08:20:38.618Z,19.26
2017-08-12T08:21:52.427Z,19.41
2017-08-12T08:23:06.059Z,19.35
2017-08-12T08:24:30.733Z,19.6
2017-08-12T08:25:44.368Z,19.63
2017-08-12T08:26:58.176Z,19.56
2017-08-12T08:28:12.310Z,19.67
2017-08-12T08:29:25.945Z,19.67
2017-08-12T08:30:39.693Z,19.7
2017-08-12T08:32:05.869Z,19.71
2017-08-12T08:33:19.546Z,19.84
2017-08-12T08:35:08.216Z,20.03
2017-08-12T08:36:48.773Z,19.92
2017-08-12T08:38:02.915Z,20.18
2017-08-12T08:39:16.596Z,20.11
2017-08-12T08:41:01.420Z,19.96
2017-08-12T08:42:15.245Z,19.85
2017-08-12T08:43:30.504Z,19.7
2017-08-12T08:45:14.017Z,19.7
2017-08-12T08:46:27.711Z,19.71
2017-08-12T08:47:41.622Z,19.67
2017-08-12T08:48:55.414Z,19.64
2017-08-12T08:50:09.098Z,19.84
2017-08-12T08:51:48.336Z,19.82
2017-08-12T08:53:02.524Z,19.71
2017-08-12T08:54:16.204Z,19.92
2017-08-12T08:55:29.834Z,19.9
2017-08-12T08:56:43.391Z,19.92
2017-08-12T08:57:57.465Z,19.7
2017-08-12T08:59:12.478Z,19.78
2017-08-12T09:00:26.772Z,19.7
2017-08-12T09:01:40.309Z,19.74
2017-08-12T09:03:30.849Z,19.72
2017-08-12T09:05:17.563Z,19.63
2017-08-12T09:06:44.932Z,19.64
2017-08-12T09:07:58.787Z,19.64
2017-08-12T09:09:25.965Z,19.66
2017-08-12T09:10:39.596Z,19.48
2017-08-12T09:11:53.214Z,19.52
2017-08-12T09:13:07.245Z,19.35
2017-08-12T09:14:20.904Z,19.34
2017-08-12T09:15:34.477Z,19.39
2017-08-12T09:16:48.415Z,19.47
2017-08-12T09:18:01.980Z,19.38
2017-08-12T09:19:15.643Z,19.38
2017-08-12T09:20:29.233Z,19.3
2017-08-12T09:21:42.956Z,19.17
2017-08-12T09:22:56.770Z,19.12
2017-08-12T09:24:10.401Z,18.83
2017-08-12T09:25:23.935Z,18.71
2017-08-12T09:26:38.005Z,18.71
2017-08-12T09:27:52.470Z,18.78
2017-08-12T09:29:06.746Z,18.92
2017-08-12T09:30:20.658Z,18.85
2017-08-12T09:31:52.575Z,18.91
2017-08-12T09:33:06.287Z,18.91
2017-08-12T09:34:19.853Z,19.16
2017-08-12T09:35:33.730Z,19.17
2017-08-12T09:36:47.258Z,19.15
2017-08-12T09:38:00.916Z,19.22
2017-08-12T09:39:14.837Z,19
2017-08-12T09:40:39.881Z,18.97
2017-08-12T09:41:53.858Z,18.88
2017-08-12T09:43:07.559Z,18.82
2017-08-12T09:44:21.101Z,18.83
2017-08-12T09:45:55.237Z,18.83
2017-08-12T09:47:09.222Z,18.74
2017-08-12T09:48:22.776Z,18.7
2017-08-12T09:49:37.121Z,18.76
2017-08-12T09:50:51.403Z,18.7
2017-08-12T09:52:05.073Z,18.83
2017-08-12T09:53:18.864Z,18.7
2017-08-12T09:55:13.645Z,18.6
2017-08-12T09:56:27.768Z,18.66
2017-08-12T09:57:41.949Z,18.67
2017-08-12T09:59:10.513Z,18.71
2017-08-12T10:00:24.430Z,18.66
2017-08-12T10:01:47.267Z,18.7
2017-08-12T10:03:01.343Z,18.78
2017-08-12T10:04:28.396Z,18.81
2017-08-12T10:05:42.360Z,18.89
2017-08-12T10:07:30.580Z,18.81
2017-08-12T10:08:44.542Z,18.81
2017-08-12T10:09:58.317Z,18.64
2017-08-12T10:11:45.454Z,18.7
2017-08-12T10:12:59.589Z,18.55
2017-08-12T10:14:13.322Z,18.67
2017-08-12T10:15:37.574Z,18.57
2017-08-12T10:16:51.179Z,18.46
2017-08-12T10:18:05.012Z,18.46
2017-08-12T10:19:18.770Z,18.46
2017-08-12T10:20:32.469Z,18.58
2017-08-12T10:21:46.073Z,18.58
2017-08-12T10:23:09.876Z,18.45
2017-08-12T10:24:23.749Z,18.52
2017-08-12T10:25:37.522Z,18.48
2017-08-12T10:26:51.804Z,18.36
2017-08-12T10:28:05.696Z,18.42
2017-08-12T10:29:19.550Z,18.27
2017-08-12T10:30:34.095Z,18.16
2017-08-12T10:31:48.132Z,18.19
2017-08-12T10:33:03.020Z,18.19
2017-08-12T10:34:17.960Z,18.18
2017-08-12T10:35:52.108Z,18.19
2017-08-12T10:37:06.111Z,18.33
2017-08-12T10:38:19.930Z,18.45
2017-08-12T10:40:00.591Z,18.39
2017-08-12T10:41:24.365Z,18.34
2017-08-12T10:42:37.898Z,18.45
2017-08-12T10:43:51.842Z,18.46
2017-08-12T10:45:05.410Z,18.48
2017-08-12T10:46:19.569Z,18.61
2017-08-12T10:47:33.440Z,18.63
2017-08-12T10:48:47.413Z,18.73
2017-08-12T10:50:01.331Z,18.71
2017-08-12T10:51:15.325Z,18.78
2017-08-12T10:52:28.901Z,18.82
2017-08-12T10:53:42.997Z,18.94
2017-08-12T10:54:56.864Z,19.07
2017-08-12T10:56:10.963Z,19.2
2017-08-12T10:57:24.498Z,19.12
2017-08-12T10:58:39.115Z,19.19
2017-08-12T10:59:52.724Z,19.2
2017-08-12T11:01:19.366Z,19.29
2017-08-12T11:02:33.208Z,19.29
2017-08-12T11:03:46.866Z,19.08
2017-08-12T11:05:00.839Z,18.88
2017-08-12T11:06:14.497Z,18.79
2017-08-12T11:07:28.101Z,18.68
2017-08-12T11:08:42.403Z,18.61
2017-08-12T11:09:55.929Z,18.63
2017-08-12T11:11:09.564Z,18.53
2017-08-12T11:12:23.344Z,18.46
2017-08-12T11:13:36.979Z,18.48
2017-08-12T11:14:50.839Z,18.6
2017-08-12T11:16:14.545Z,18.57
2017-08-12T11:17:28.198Z,18.67
2017-08-12T11:18:42.480Z,18.61
2017-08-12T11:19:56.428Z,18.49
2017-08-12T11:21:10.129Z,18.57
2017-08-12T11:22:24.312Z,18.52
2017-08-12T11:23:57.206Z,18.6
2017-08-12T11:25:11.242Z,18.7
2017-08-12T11:26:25.113Z,18.74
2017-08-12T11:28:10.051Z,18.74
2017-08-12T11:29:33.196Z,18.74
2017-08-12T11:30:46.837Z,18.86
2017-08-12T11:32:29.750Z,18.89
2017-08-12T11:33:43.461Z,18.88
2017-08-12T11:34:57.323Z,19.01
2017-08-12T11:36:11.350Z,18.92
2017-08-12T11:37:25.546Z,18.91
2017-08-12T11:38:39.557Z,18.86
2017-08-12T11:39:53.126Z,18.85
2017-08-12T11:41:07.181Z,18.94
2017-08-12T11:42:20.793Z,19.16
2017-08-12T11:43:34.457Z,19.12
2017-08-12T11:44:48.364Z,19.23
2017-08-12T11:46:02.025Z,19.12
2017-08-12T11:47:15.950Z,19.05
2017-08-12T11:48:29.636Z,18.98
2017-08-12T11:49:43.386Z,18.97
2017-08-12T11:50:58.226Z,19
2017-08-12T11:52:12.197Z,18.98
2017-08-12T11:53:25.879Z,18.98
2017-08-12T11:54:39.446Z,18.88
2017-08-12T11:55:53.365Z,18.68
2017-08-12T11:57:07.110Z,18.66
2017-08-12T11:58:20.781Z,18.63
2017-08-12T11:59:34.767Z,18.64
2017-08-12T12:01:01.103Z,18.48
2017-08-12T12:02:14.803Z,18.48
2017-08-12T12:03:28.421Z,18.48
2017-08-12T12:04:41.954Z,18.46
2017-08-12T12:05:55.580Z,18.51
2017-08-12T12:07:09.299Z,18.61
2017-08-12T12:08:22.929Z,18.6
2017-08-12T12:09:36.471Z,18.55
2017-08-12T12:10:50.113Z,18.6
2017-08-12T12:12:03.670Z,18.55
2017-08-12T12:13:34.157Z,18.51
2017-08-12T12:14:47.705Z,18.46
2017-08-12T12:16:01.399Z,18.6
2017-08-12T12:17:15.029Z,18.6
2017-08-12T12:18:28.658Z,18.61
2017-08-12T12:19:42.216Z,18.6
2017-08-12T12:20:56.320Z,18.64
2017-08-12T12:22:09.843Z,18.63
2017-08-12T12:23:23.513Z,18.61
2017-08-12T12:24:37.069Z,18.55
2017-08-12T12:25:50.751Z,18.61
2017-08-12T12:27:04.739Z,18.6
2017-08-12T12:28:18.751Z,18.58
2017-08-12T12:29:32.333Z,18.6
2017-08-12T12:30:46.297Z,18.57
2017-08-12T12:31:59.827Z,18.67
2017-08-12T12:33:13.518Z,18.73
2017-08-12T12:34:27.353Z,18.67
2017-08-12T12:36:21.824Z,18.73
2017-08-12T12:37:35.810Z,18.83
2017-08-12T12:38:49.863Z,18.78
2017-08-12T12:40:03.841Z,18.86
2017-08-12T12:41:17.400Z,18.86
2017-08-12T12:42:31.390Z,19.05
2017-08-12T12:43:45.180Z,19.16
2017-08-12T12:45:20.699Z,19.34
2017-08-12T12:46:34.456Z,19.38
2017-08-12T12:47:48.431Z,19.41
2017-08-12T12:49:29.727Z,19.39
2017-08-12T12:50:43.473Z,19.3
2017-08-12T12:51:57.110Z,19.27
2017-08-12T12:53:11.092Z,19.23
2017-08-12T12:54:24.714Z,19.16
2017-08-12T12:55:38.673Z,19.07
2017-08-12T12:56:52.765Z,19.08
2017-08-12T12:58:07.095Z,18.94
2017-08-12T12:59:20.649Z,19.09
2017-08-12T13:00:34.947Z,19.05
2017-08-12T13:01:48.953Z,18.94
2017-08-12T13:03:26.167Z,18.74
2017-08-12T13:04:40.135Z,18.7
2017-08-12T13:05:54.014Z,18.71
2017-08-12T13:07:08.049Z,18.73
2017-08-12T13:08:21.973Z,18.74
2017-08-12T13:09:49.782Z,18.79
2017-08-12T13:11:03.765Z,18.79
2017-08-12T13:12:42.576Z,18.83
2017-08-12T13:13:56.538Z,18.74
2017-08-12T13:15:10.464Z,18.76
2017-08-12T13:17:27.529Z,18.64
2017-08-12T13:18:41.397Z,18.66
2017-08-12T13:20:09.000Z,18.57
2017-08-12T13:21:22.877Z,18.55
2017-08-12T13:22:36.548Z,18.58
2017-08-12T13:23:50.079Z,18.67
2017-08-12T13:25:19.774Z,18.55
2017-08-12T13:26:33.480Z,18.43
2017-08-12T13:27:47.110Z,18.52
2017-08-12T13:29:01.382Z,18.52
2017-08-12T13:30:59.097Z,18.57
2017-08-12T13:32:33.124Z,18.66
2017-08-12T13:33:47.213Z,18.6
2017-08-12T13:35:01.408Z,18.67
2017-08-12T13:36:15.458Z,18.66
2017-08-12T13:37:29.344Z,18.76
2017-08-12T13:38:43.003Z,18.76
2017-08-12T13:39:56.636Z,18.85
2017-08-12T13:41:10.985Z,18.83
2017-08-12T13:42:24.562Z,19.08
2017-08-12T13:43:38.215Z,19.11
2017-08-12T13:44:52.082Z,19.09
2017-08-12T13:46:05.863Z,19.15
2017-08-12T13:47:19.465Z,19.19
2017-08-12T13:48:33.186Z,19.16
2017-08-12T13:49:46.942Z,19.16
2017-08-12T13:51:10.077Z,19.2
2017-08-12T13:52:25.103Z,19.07
2017-08-12T13:53:40.055Z,18.98
2017-08-12T13:54:53.603Z,18.91
2017-08-12T13:56:07.649Z,19.05
2017-08-12T13:57:21.192Z,18.96
2017-08-12T13:58:34.895Z,19.05
2017-08-12T13:59:48.448Z,19.2
2017-08-12T14:01:02.507Z,19.3
2017-08-12T14:02:16.081Z,19.32
2017-08-12T14:03:29.742Z,19.39
2017-08-12T14:04:43.641Z,19.47
2017-08-12T14:05:57.351Z,19.39
2017-08-12T14:07:11.023Z,19.34
2017-08-12T14:08:25.012Z,19.29
2017-08-12T14:09:38.897Z,19.35
2017-08-12T14:10:52.661Z,19.37
2017-08-12T14:12:06.288Z,19.38
2017-08-12T14:13:33.091Z,19.32
2017-08-12T14:14:46.977Z,19.2
2017-08-12T14:16:01.282Z,19.08
2017-08-12T14:17:14.998Z,18.88
2017-08-12T14:18:44.214Z,18.63
2017-08-12T14:19:58.854Z,18.66
2017-08-12T14:21:12.932Z,18.58
2017-08-12T14:22:27.425Z,18.58
2017-08-12T14:23:41.162Z,18.51
2017-08-12T14:24:55.022Z,18.36
2017-08-12T14:26:09.280Z,18.37
2017-08-12T14:27:22.910Z,18.46
2017-08-12T14:28:36.534Z,18.42
2017-08-12T14:29:50.067Z,18.37
2017-08-12T14:31:03.699Z,18.34
2017-08-12T14:32:17.221Z,18.43
2017-08-12T14:33:48.739Z,18.48
2017-08-12T14:35:02.416Z,18.53
2017-08-12T14:36:16.060Z,18.57
2017-08-12T14:37:30.035Z,18.45
2017-08-12T14:38:43.889Z,18.36
2017-08-12T14:40:11.062Z,18.28
2017-08-12T14:41:25.190Z,18.41
2017-08-12T14:43:01.510Z,18.34
2017-08-12T14:44:15.599Z,18.27
2017-08-12T14:45:29.216Z,18.31
2017-08-12T14:46:42.973Z,18.42
2017-08-12T14:47:56.982Z,18.28
2017-08-12T14:49:40.173Z,18.21
2017-08-12T14:50:53.905Z,18.28
2017-08-12T14:52:08.402Z,18.28
2017-08-12T14:53:58.379Z,18.3
2017-08-12T14:55:38.498Z,18.33
2017-08-12T14:56:52.598Z,18.41
2017-08-12T14:58:06.624Z,18.34
2017-08-12T14:59:20.374Z,18.41
2017-08-12T15:00:33.917Z,18.36
2017-08-12T15:01:47.869Z,18.49
2017-08-12T15:03:02.108Z,18.49
2017-08-12T15:04:39.697Z,18.49
2017-08-12T15:05:53.366Z,18.43
2017-08-12T15:07:06.973Z,18.55
2017-08-12T15:08:20.678Z,18.46
2017-08-12T15:09:34.196Z,18.55
2017-08-12T15:11:16.379Z,18.52
2017-08-12T15:12:30.300Z,18.51
2017-08-12T15:13:44.136Z,18.51
2017-08-12T15:14:57.940Z,18.51
2017-08-12T15:16:11.473Z,18.42
2017-08-12T15:17:25.150Z,18.57
2017-08-12T15:18:39.053Z,18.45
2017-08-12T15:19:52.968Z,18.36
2017-08-12T15:21:06.640Z,18.36
2017-08-12T15:22:20.683Z,18.39
2017-08-12T15:23:34.208Z,18.42
2017-08-12T15:24:48.407Z,18.41
2017-08-12T15:26:01.953Z,18.34
2017-08-12T15:27:40.742Z,18.41
2017-08-12T15:29:04.449Z,18.3
2017-08-12T15:30:18.270Z,18.27
2017-08-12T15:31:50.632Z,18.37
2017-08-12T15:33:04.616Z,18.42
2017-08-12T15:34:18.464Z,18.43
2017-08-12T15:35:32.487Z,18.37
2017-08-12T15:36:46.072Z,18.48
2017-08-12T15:37:59.706Z,18.49
2017-08-12T15:39:13.312Z,18.55
2017-08-12T15:40:27.078Z,18.6
2017-08-12T15:41:40.608Z,18.6
2017-08-12T15:42:54.732Z,18.61
2017-08-12T15:44:08.259Z,18.63
2017-08-12T15:45:52.544Z,18.74
2017-08-12T15:47:27.606Z,18.82
2017-08-12T15:48:41.263Z,18.66
2017-08-12T15:49:55.175Z,18.66
2017-08-12T15:51:09.056Z,18.66
2017-08-12T15:52:22.956Z,18.64
2017-08-12T15:53:36.596Z,18.57
2017-08-12T15:54:50.134Z,18.53
2017-08-12T15:56:04.172Z,18.51
2017-08-12T15:57:17.730Z,18.37
2017-08-12T15:58:31.467Z,18.37
2017-08-12T15:59:45.643Z,18.52
2017-08-12T16:00:59.302Z,18.52
2017-08-12T16:02:13.005Z,18.48
2017-08-12T16:03:48.611Z,18.43
2017-08-12T16:05:15.010Z,18.36
2017-08-12T16:06:28.622Z,18.39
2017-08-12T16:07:54.092Z,18.34
2017-08-12T16:09:07.638Z,18.42
2017-08-12T16:10:21.493Z,18.36
2017-08-12T16:11:35.114Z,18.43
2017-08-12T16:12:48.838Z,18.28
2017-08-12T16:14:02.455Z,18.36
2017-08-12T16:15:25.527Z,18.26
2017-08-12T16:16:39.116Z,18.41
2017-08-12T16:18:10.836Z,18.45
2017-08-12T16:19:40.890Z,18.42
2017-08-12T16:20:54.431Z,18.49
2017-08-12T16:22:08.876Z,18.58
2017-08-12T16:23:22.900Z,18.51
2017-08-12T16:24:36.598Z,18.45
2017-08-12T16:25:50.162Z,18.51
2017-08-12T16:27:03.986Z,18.42
2017-08-12T16:28:18.156Z,18.45
2017-08-12T16:29:31.798Z,18.49
2017-08-12T16:30:45.583Z,18.49
2017-08-12T16:31:59.273Z,18.58
2017-08-12T16:33:12.984Z,18.61
2017-08-12T16:34:26.749Z,18.6
2017-08-12T16:35:40.293Z,18.55
2017-08-12T16:36:54.332Z,18.6
2017-08-12T16:38:07.922Z,18.6
2017-08-12T16:39:21.947Z,18.55
2017-08-12T16:40:35.481Z,18.55
2017-08-12T16:42:09.143Z,18.58
2017-08-12T16:43:43.906Z,18.6
2017-08-12T16:44:57.532Z,18.45
2017-08-12T16:46:11.187Z,18.34
2017-08-12T16:47:24.886Z,18.48
2017-08-12T16:48:38.408Z,18.34
2017-08-12T16:49:52.376Z,18.46
2017-08-12T16:51:06.202Z,18.3
2017-08-12T16:52:19.962Z,18.27
2017-08-12T16:53:33.564Z,18.24
2017-08-12T16:55:03.327Z,18.15
2017-08-12T16:56:17.058Z,18.27
2017-08-12T16:57:31.063Z,18.28
2017-08-12T16:59:01.968Z,18.24
2017-08-12T17:00:15.684Z,18.34
2017-08-12T17:01:29.266Z,18.28
2017-08-12T17:02:59.354Z,18.26
2017-08-12T17:04:12.959Z,18.21
2017-08-12T17:05:26.622Z,18.19
2017-08-12T17:06:40.502Z,18.21
2017-08-12T17:07:54.167Z,18.24
2017-08-12T17:09:07.707Z,18.18
2017-08-12T17:10:35.296Z,18.19
2017-08-12T17:11:50.099Z,18.26
2017-08-12T17:13:04.150Z,18.19
2017-08-12T17:14:17.734Z,18.21
2017-08-12T17:15:47.639Z,18.19
2017-08-12T17:17:01.266Z,18.18
2017-08-12T17:18:14.973Z,18.19
2017-08-12T17:19:28.898Z,18.24
2017-08-12T17:20:42.662Z,18.13
2017-08-12T17:21:56.598Z,18.09
2017-08-12T17:23:10.900Z,18.11
2017-08-12T17:24:24.521Z,18.15
2017-08-12T17:25:38.596Z,18.21
2017-08-12T17:26:52.428Z,18.11
2017-08-12T17:28:23.368Z,18.19
2017-08-12T17:29:37.177Z,18.23
2017-08-12T17:30:50.885Z,18.15
2017-08-12T17:32:04.881Z,18.12
2017-08-12T17:33:18.784Z,18.18
2017-08-12T17:34:32.809Z,18.19
2017-08-12T17:35:47.143Z,18.27
2017-08-12T17:37:01.712Z,18.24
2017-08-12T17:38:15.324Z,18.21
2017-08-12T17:39:28.998Z,18.18
2017-08-12T17:40:42.570Z,18.15
2017-08-12T17:41:56.818Z,18.09
2017-08-12T17:43:10.380Z,18.06
2017-08-12T17:44:24.764Z,18
2017-08-12T17:45:38.601Z,17.95
2017-08-12T17:46:52.938Z,18
2017-08-12T17:48:06.754Z,17.94
2017-08-12T17:49:20.505Z,17.94
2017-08-12T17:50:34.371Z,17.93
2017-08-12T17:51:48.064Z,17.87
2017-08-12T17:53:01.643Z,17.76
2017-08-12T17:54:15.898Z,17.79
2017-08-12T17:55:29.450Z,17.76
2017-08-12T17:57:04.084Z,17.75
2017-08-12T17:58:45.517Z,17.82
2017-08-12T17:59:59.868Z,17.79
2017-08-12T18:01:13.642Z,17.76
2017-08-12T18:02:38.771Z,17.82
2017-08-12T18:03:54.077Z,17.73
2017-08-12T18:05:10.940Z,17.8
2017-08-12T18:06:27.357Z,17.78
2017-08-12T18:08:11.691Z,17.78
2017-08-12T18:09:27.335Z,17.76
2017-08-12T18:10:42.842Z,17.82
2017-08-12T18:11:57.879Z,17.84
2017-08-12T18:13:14.104Z,17.73
2017-08-12T18:14:30.293Z,17.66
2017-08-12T18:15:46.268Z,17.66
2017-08-12T18:17:01.700Z,17.69
2017-08-12T18:18:16.845Z,17.68
2017-08-12T18:19:32.213Z,17.63
2017-08-12T18:20:48.447Z,17.63
2017-08-12T18:22:05.972Z,17.6
2017-08-12T18:23:21.589Z,17.65
2017-08-12T18:24:36.346Z,17.66
2017-08-12T18:25:52.399Z,17.63
2017-08-12T18:27:09.462Z,17.69
2017-08-12T18:28:24.152Z,17.66
2017-08-12T18:29:40.847Z,17.63
2017-08-12T18:30:57.003Z,17.65
2017-08-12T18:32:12.453Z,17.53
2017-08-12T18:33:27.399Z,17.66
2017-08-12T18:35:01.853Z,17.66
2017-08-12T18:36:16.566Z,17.56
2017-08-12T18:37:31.938Z,17.56
2017-08-12T18:39:01.663Z,17.63
2017-08-12T18:40:32.326Z,17.5
2017-08-12T18:41:47.626Z,17.54
2017-08-12T18:43:02.409Z,17.54
2017-08-12T18:44:34.551Z,17.52
2017-08-12T18:45:49.289Z,17.6
2017-08-12T18:47:03.641Z,17.66
2017-08-12T18:48:26.474Z,17.57
2017-08-12T18:49:40.079Z,17.56
2017-08-12T18:50:54.490Z,17.57
2017-08-12T18:52:09.570Z,17.53
2017-08-12T18:53:40.998Z,17.6
2017-08-12T18:55:04.245Z,17.39
2017-08-12T18:56:17.944Z,17.49
2017-08-12T18:57:54.238Z,17.49
2017-08-12T18:59:09.863Z,17.47
2017-08-12T19:00:23.424Z,17.47
2017-08-12T19:01:37.202Z,17.46
2017-08-12T19:02:51.643Z,17.49
2017-08-12T19:04:15.389Z,17.53
2017-08-12T19:05:29.753Z,17.52
2017-08-12T19:07:14.852Z,17.53
2017-08-12T19:08:28.971Z,17.56
2017-08-12T19:09:44.084Z,17.53
2017-08-12T19:10:58.338Z,17.41
2017-08-12T19:12:12.225Z,17.46
2017-08-12T19:13:26.085Z,17.44
2017-08-12T19:14:39.842Z,17.47
2017-08-12T19:15:54.002Z,17.41
2017-08-12T19:17:07.596Z,17.39
2017-08-12T19:18:34.455Z,17.46
2017-08-12T19:19:48.182Z,17.46
2017-08-12T19:21:01.974Z,17.42
2017-08-12T19:22:15.590Z,17.47
2017-08-12T19:23:46.173Z,17.49
2017-08-12T19:24:59.846Z,17.46
2017-08-12T19:26:14.286Z,17.32
2017-08-12T19:27:28.933Z,17.39
2017-08-12T19:28:42.613Z,17.38
2017-08-12T19:29:56.490Z,17.41
2017-08-12T19:31:20.118Z,17.44
2017-08-12T19:32:34.012Z,17.42
2017-08-12T19:33:57.852Z,17.47
2017-08-12T19:35:11.931Z,17.41
2017-08-12T19:36:25.595Z,17.53
2017-08-12T19:37:39.307Z,17.39
2017-08-12T19:38:53.260Z,17.42
2017-08-12T19:40:06.800Z,17.44
2017-08-12T19:41:45.758Z,17.46
2017-08-12T19:43:08.583Z,17.44
2017-08-12T19:44:22.185Z,17.46
2017-08-12T19:45:56.373Z,17.37
2017-08-12T19:47:10.180Z,17.41
2017-08-12T19:48:23.740Z,17.39
2017-08-12T19:49:37.902Z,17.32
2017-08-12T19:50:51.832Z,17.32
2017-08-12T19:52:05.653Z,17.32
2017-08-12T19:53:19.932Z,17.37
2017-08-12T19:54:47.236Z,17.34
2017-08-12T19:56:01.151Z,17.35
2017-08-12T19:57:15.045Z,17.38
2017-08-12T19:58:28.924Z,17.38
2017-08-12T19:59:43.545Z,17.34
2017-08-12T20:01:09.992Z,17.31
2017-08-12T20:02:24.575Z,17.37
2017-08-12T20:03:38.218Z,17.39
2017-08-12T20:04:52.031Z,17.39
2017-08-12T20:06:05.739Z,17.34
2017-08-12T20:07:19.475Z,17.39
2017-08-12T20:09:38.752Z,17.24
2017-08-12T20:10:52.540Z,17.27
2017-08-12T20:14:42.599Z,17.34
2017-08-12T20:16:09.687Z,17.31
2017-08-12T20:18:14.792Z,17.22
2017-08-12T20:20:19.884Z,17.28
2017-08-12T20:22:24.483Z,17.34
2017-08-12T20:23:38.399Z,17.3
2017-08-12T20:24:52.721Z,17.32
2017-08-12T20:26:06.303Z,17.35
2017-08-12T20:27:19.874Z,17.31
2017-08-12T20:28:33.393Z,17.35
2017-08-12T20:29:46.892Z,17.39
2017-08-12T20:31:01.016Z,17.42
2017-08-12T20:32:14.514Z,17.38
2017-08-12T20:33:28.922Z,17.38
2017-08-12T20:34:42.453Z,17.37
2017-08-12T20:35:56.296Z,17.32
2017-08-12T20:37:10.145Z,17.42
2017-08-12T20:38:23.684Z,17.32
2017-08-12T20:39:37.497Z,17.3
2017-08-12T20:40:51.052Z,17.31
2017-08-12T20:42:04.933Z,17.34
2017-08-12T20:43:18.720Z,17.38
2017-08-12T20:44:32.256Z,17.38
2017-08-12T20:45:45.798Z,17.42
2017-08-12T20:49:56.824Z,17.34
2017-08-12T20:51:11.050Z,17.42
2017-08-12T20:52:24.567Z,17.37
2017-08-12T20:53:38.527Z,17.44
2017-08-12T20:54:52.035Z,17.39
2017-08-12T20:56:05.591Z,17.42
2017-08-12T20:57:19.419Z,17.46
2017-08-12T20:58:32.935Z,17.49
2017-08-12T20:59:46.477Z,17.49
2017-08-12T21:01:00.252Z,17.44
2017-08-12T21:02:13.905Z,17.42
2017-08-12T21:03:28.654Z,17.42
2017-08-12T21:04:43.099Z,17.44
2017-08-12T21:05:57.444Z,17.44
2017-08-12T21:07:11.471Z,17.46
2017-08-12T21:08:25.745Z,17.42
2017-08-12T21:09:39.787Z,17.32
2017-08-12T21:10:53.611Z,17.44
2017-08-12T21:12:07.493Z,17.39
2017-08-12T21:13:21.273Z,17.35
2017-08-12T21:14:34.793Z,17.41
2017-08-12T21:15:49.000Z,17.47
2017-08-12T21:17:02.721Z,17.38
2017-08-12T21:18:16.531Z,17.41
2017-08-12T21:19:30.160Z,17.42
2017-08-12T21:20:44.021Z,17.46
2017-08-12T21:21:58.066Z,17.44
2017-08-12T21:23:11.673Z,17.42
2017-08-12T21:24:25.724Z,17.34
2017-08-12T21:25:39.435Z,17.35
2017-08-12T21:26:53.428Z,17.31
2017-08-12T21:28:07.650Z,17.37
2017-08-12T21:29:21.970Z,17.38
2017-08-12T21:30:35.916Z,17.41
2017-08-12T21:31:49.680Z,17.39
2017-08-12T21:33:03.321Z,17.32
2017-08-12T21:34:17.228Z,17.39
2017-08-12T21:35:31.282Z,17.38
2017-08-12T21:36:44.841Z,17.39
2017-08-12T21:37:58.850Z,17.41
2017-08-12T21:39:12.516Z,17.31
2017-08-12T21:40:26.456Z,17.39
2017-08-12T21:41:40.072Z,17.41
2017-08-12T21:42:54.127Z,17.38
2017-08-12T21:44:07.727Z,17.39
2017-08-12T21:45:21.386Z,17.42
2017-08-12T21:46:36.323Z,17.39
2017-08-12T21:47:49.899Z,17.46
2017-08-12T21:49:03.881Z,17.39
2017-08-12T21:50:17.555Z,17.32
2017-08-12T21:51:32.245Z,17.44
2017-08-12T21:52:46.436Z,17.44
2017-08-12T21:54:00.134Z,17.47
2017-08-12T21:55:14.614Z,17.41
2017-08-12T21:56:28.749Z,17.38
2017-08-12T21:57:42.709Z,17.47
2017-08-12T21:58:56.782Z,17.44
2017-08-12T22:00:11.181Z,17.47
2017-08-12T22:01:26.758Z,17.46
2017-08-12T22:02:40.797Z,17.5
2017-08-12T22:03:55.452Z,17.49
2017-08-12T22:05:09.885Z,17.41
2017-08-12T22:06:23.760Z,17.41
2017-08-12T22:07:37.686Z,17.46
2017-08-12T22:08:51.299Z,17.42
2017-08-12T22:10:05.251Z,17.42
2017-08-12T22:11:19.763Z,17.41
2017-08-12T22:12:33.670Z,17.42
2017-08-12T22:13:47.275Z,17.41
2017-08-12T22:15:00.860Z,17.46
2017-08-12T22:16:14.978Z,17.5
2017-08-12T22:17:29.536Z,17.38
2017-08-12T22:18:43.374Z,17.34
2017-08-12T22:19:57.438Z,17.44
2017-08-12T22:21:11.446Z,17.42
2017-08-12T22:22:25.371Z,17.46
2017-08-12T22:23:40.017Z,17.44
2017-08-12T22:24:54.400Z,17.42
2017-08-12T22:26:08.132Z,17.44
2017-08-12T22:27:22.382Z,17.42
2017-08-12T22:28:36.327Z,17.46
2017-08-12T22:29:50.240Z,17.44
2017-08-12T22:31:04.619Z,17.42
2017-08-12T22:32:18.595Z,17.42
2017-08-12T22:33:32.491Z,17.44
2017-08-12T22:34:46.446Z,17.46
2017-08-12T22:36:00.315Z,17.46
2017-08-12T22:37:14.355Z,17.31
2017-08-12T22:38:28.248Z,17.42
2017-08-12T22:39:41.880Z,17.35
2017-08-12T22:40:55.656Z,17.35
2017-08-12T22:42:09.496Z,17.38